Time;durP1;ratioP1;P1;durP2;ratioP2;P2;SDS_P1;SDS_P2;PMS_P1;PMS_P2;Temp;Humidity;BMP_temperature;BMP_pressure;BME280_temperature;BME280_humidity;BME280_pressure;Samples;Min_cycle;Max_cycle;Signal;HPM_P1;HPM_P2
2022/08/31 00:05:45;;;;;;;3.67;1.20;;;19.50;97.10;;;;;;7334719;19;110443;-73
2022/08/31 00:08:13;;;;;;;2.03;1.15;;;19.50;97.70;;;;;;7336353;19;110588;-73
2022/08/31 00:10:44;;;;;;;1.85;1.30;;;19.50;97.50;;;;;;7334110;19;110133;-73
2022/08/31 00:13:12;;;;;;;2.85;1.00;;;19.60;97.60;;;;;;7332825;19;109410;-73
2022/08/31 00:15:40;;;;;;;1.85;1.30;;;19.60;97.70;;;;;;7340467;19;110767;-74
2022/08/31 00:18:08;;;;;;;9.18;1.20;;;19.60;97.80;;;;;;7332628;19;109967;-73
2022/08/31 00:20:36;;;;;;;4.43;1.15;;;19.60;98.10;;;;;;7335392;19;110837;-74
2022/08/31 00:23:05;;;;;;;1.95;1.20;;;19.50;98.30;;;;;;7328086;19;112169;-73
2022/08/31 00:25:34;;;;;;;3.70;1.15;;;19.60;98.20;;;;;;7334426;19;109510;-73
2022/08/31 00:28:02;;;;;;;2.65;1.30;;;19.60;98.50;;;;;;7335359;19;113610;-73
2022/08/31 00:30:29;;;;;;;2.45;1.25;;;19.50;98.70;;;;;;7332183;19;115280;-73
2022/08/31 00:32:57;;;;;;;5.35;1.25;;;19.50;99.10;;;;;;7331463;19;111489;-73
2022/08/31 00:35:26;;;;;;;2.88;1.25;;;19.50;99.00;;;;;;7334148;19;110016;-73
2022/08/31 00:37:53;;;;;;;2.17;1.00;;;19.60;99.40;;;;;;7341224;19;111166;-73
2022/08/31 00:40:21;;;;;;;3.92;1.38;;;19.50;99.20;;;;;;7338234;19;110548;-74
2022/08/31 00:42:48;;;;;;;4.05;1.55;;;19.50;99.40;;;;;;7340591;19;112705;-73
2022/08/31 00:45:15;;;;;;;4.93;1.23;;;19.50;99.60;;;;;;7341382;19;109375;-73
2022/08/31 00:47:42;;;;;;;5.93;1.40;;;19.40;99.60;;;;;;7341004;19;110563;-73
2022/08/31 00:50:13;;;;;;;5.85;1.40;;;19.40;99.70;;;;;;7341041;19;111364;-74
2022/08/31 00:52:46;;;;;;;3.70;1.40;;;19.40;99.80;;;;;;7338403;19;109930;-73
2022/08/31 00:55:26;;;;;;;3.38;1.65;;;19.40;99.90;;;;;;7340327;19;110453;-73
2022/08/31 00:57:56;;;;;;;3.42;1.30;;;19.50;99.90;;;;;;7339215;19;111165;-74
2022/08/31 01:00:26;;;;;;;9.85;1.50;;;19.40;99.90;;;;;;7342487;19;110103;-73
2022/08/31 01:02:56;;;;;;;3.05;1.30;;;19.40;99.90;;;;;;7341920;19;111828;-74
2022/08/31 01:05:24;;;;;;;3.10;1.40;;;19.40;99.90;;;;;;7341069;19;111720;-74
2022/08/31 01:07:51;;;;;;;2.65;1.50;;;19.30;99.90;;;;;;7341222;19;111093;-74
2022/08/31 01:10:22;;;;;;;6.43;1.40;;;19.20;99.90;;;;;;7336949;19;110491;-73
2022/08/31 01:12:52;;;;;;;2.05;1.17;;;19.20;99.90;;;;;;7340682;19;109769;-74
2022/08/31 01:15:20;;;;;;;3.97;1.30;;;19.20;99.90;;;;;;7340307;19;111425;-73
2022/08/31 01:17:49;;;;;;;2.08;1.30;;;19.20;99.90;;;;;;7340905;19;111227;-74
2022/08/31 01:20:23;;;;;;;3.85;1.52;;;19.10;99.90;;;;;;7340276;19;109610;-73
2022/08/31 01:23:11;;;;;;;7.13;1.58;;;19.10;99.90;;;;;;7344025;19;112205;-74
2022/08/31 01:25:38;;;;;;;;;;;19.00;99.90;;;;;;7341564;19;111033;-74
2022/08/31 01:28:07;;;;;;;3.42;1.40;;;19.00;99.90;;;;;;7343810;19;109834;-73
2022/08/31 01:30:36;;;;;;;2.83;1.33;;;18.90;99.90;;;;;;7340515;19;111130;-73
2022/08/31 01:33:03;;;;;;;4.97;1.50;;;18.90;99.90;;;;;;7339502;19;109460;-73
2022/08/31 01:35:32;;;;;;;3.65;1.70;;;18.90;99.90;;;;;;7341578;19;111241;-73
2022/08/31 01:38:01;;;;;;;2.20;1.65;;;18.90;99.90;;;;;;7339590;19;114008;-74
2022/08/31 01:40:45;;;;;;;3.92;1.58;;;18.90;99.90;;;;;;7337039;19;109449;-74
2022/08/31 01:43:12;;;;;;;1.50;1.40;;;18.80;99.90;;;;;;7339672;19;110401;-74
2022/08/31 01:45:39;;;;;;;5.03;1.73;;;18.80;99.90;;;;;;7344771;19;111565;-73
2022/08/31 01:48:06;;;;;;;3.55;1.70;;;18.90;99.90;;;;;;7339719;19;109897;-73
2022/08/31 01:50:34;;;;;;;4.93;1.52;;;18.80;99.90;;;;;;7337794;19;112456;-74
2022/08/31 01:53:01;;;;;;;4.18;1.60;;;18.70;99.90;;;;;;7340120;19;109595;-74
2022/08/31 01:55:28;;;;;;;1.83;1.30;;;18.70;99.90;;;;;;7339828;19;109482;-73
2022/08/31 01:57:59;;;;;;;3.58;1.70;;;18.70;99.90;;;;;;7340007;19;110226;-73
2022/08/31 02:00:27;;;;;;;2.60;1.80;;;18.70;99.90;;;;;;7338852;19;109457;-73
2022/08/31 02:02:59;;;;;;;3.63;1.88;;;18.70;99.90;;;;;;7339210;19;110923;-73
2022/08/31 02:05:27;;;;;;;2.75;1.70;;;18.70;99.90;;;;;;7339410;19;111155;-73
2022/08/31 02:07:55;;;;;;;3.38;1.58;;;18.70;99.90;;;;;;7344038;19;110760;-73
2022/08/31 02:10:23;;;;;;;3.65;1.63;;;18.70;99.90;;;;;;7338878;19;110117;-73
2022/08/31 02:12:50;;;;;;;3.17;1.70;;;18.70;99.90;;;;;;7338180;19;110137;-73
2022/08/31 02:15:17;;;;;;;5.50;1.98;;;18.70;99.90;;;;;;7338899;19;110300;-73
2022/08/31 02:17:44;;;;;;;3.00;1.60;;;18.70;99.90;;;;;;7337979;19;111052;-74
2022/08/31 02:20:12;;;;;;;2.58;1.83;;;18.70;99.90;;;;;;7340165;19;109442;-74
2022/08/31 02:22:39;;;;;;;4.38;1.70;;;18.60;99.90;;;;;;7338967;19;113739;-73
2022/08/31 02:25:08;;;;;;;1.67;1.58;;;18.60;99.90;;;;;;7337585;19;110945;-74
2022/08/31 02:27:35;;;;;;;5.10;1.67;;;18.60;99.90;;;;;;7343138;19;109343;-73
2022/08/31 02:30:09;;;;;;;5.10;1.63;;;18.60;99.90;;;;;;7337325;19;110185;-74
2022/08/31 02:32:36;;;;;;;4.97;1.60;;;18.60;99.90;;;;;;7338407;19;109667;-73
2022/08/31 02:35:04;;;;;;;2.10;1.77;;;18.60;99.90;;;;;;7339272;19;110836;-73
2022/08/31 02:37:31;;;;;;;3.65;1.60;;;18.50;99.90;;;;;;7338539;19;111871;-73
2022/08/31 02:40:01;;;;;;;3.33;1.83;;;18.50;99.90;;;;;;7338215;19;109951;-73
2022/08/31 02:42:30;;;;;;;3.25;1.50;;;18.50;99.90;;;;;;7338210;19;109840;-73
2022/08/31 02:45:17;;;;;;;2.45;1.70;;;18.50;99.90;;;;;;7338992;19;113802;-74
2022/08/31 02:47:44;;;;;;;5.35;1.80;;;18.50;99.90;;;;;;7338825;19;109785;-74
2022/08/31 02:50:12;;;;;;;2.35;1.60;;;18.50;99.90;;;;;;7343773;19;109384;-73
2022/08/31 02:52:39;;;;;;;2.72;1.63;;;18.50;99.90;;;;;;7338911;19;109798;-73
2022/08/31 02:55:06;;;;;;;5.13;1.73;;;18.40;99.90;;;;;;7332944;19;110451;-73
2022/08/31 02:57:33;;;;;;;4.30;1.85;;;18.40;99.90;;;;;;7338905;19;111099;-74
2022/08/31 03:00:01;;;;;;;3.08;1.70;;;18.40;99.90;;;;;;7338394;19;109632;-73
2022/08/31 03:02:28;;;;;;;3.95;1.83;;;18.40;99.90;;;;;;7334398;19;110438;-73
2022/08/31 03:05:00;;;;;;;3.33;1.90;;;18.40;99.90;;;;;;7336657;19;111260;-73
2022/08/31 03:07:27;;;;;;;3.28;1.88;;;18.40;99.90;;;;;;7337735;19;109466;-73
2022/08/31 03:09:54;;;;;;;2.17;1.73;;;18.30;99.90;;;;;;7338457;19;110838;-74
2022/08/31 03:12:21;;;;;;;1.77;1.42;;;18.40;99.90;;;;;;7343514;19;111478;-73
2022/08/31 03:14:48;;;;;;;3.22;1.70;;;18.40;99.90;;;;;;7335762;19;110346;-73
2022/08/31 03:17:15;;;;;;;4.20;1.70;;;18.40;99.90;;;;;;7337673;19;110566;-74
2022/08/31 03:19:42;;;;;;;2.45;1.90;;;18.40;99.90;;;;;;7337905;19;109501;-73
2022/08/31 03:22:12;;;;;;;2.65;1.90;;;18.40;99.90;;;;;;7336176;19;110688;-74
2022/08/31 03:24:39;;;;;;;4.65;2.10;;;18.30;99.90;;;;;;7337126;19;112011;-73
2022/08/31 03:27:06;;;;;;;4.18;2.05;;;18.30;99.90;;;;;;7336998;19;109679;-73
2022/08/31 03:29:33;;;;;;;3.45;1.80;;;18.30;99.90;;;;;;7337208;19;109988;-74
2022/08/31 03:32:01;;;;;;;2.38;1.80;;;18.20;99.90;;;;;;7336285;19;110140;-73
2022/08/31 03:34:28;;;;;;;3.97;2.00;;;18.20;99.90;;;;;;7340184;19;112521;-74
2022/08/31 03:36:55;;;;;;;2.15;1.70;;;18.20;99.90;;;;;;7336400;19;111388;-73
2022/08/31 03:39:22;;;;;;;2.55;1.52;;;18.20;99.90;;;;;;7336104;19;109291;-74
2022/08/31 03:41:49;;;;;;;3.58;2.13;;;18.10;99.90;;;;;;7336994;19;111672;-73
2022/08/31 03:44:18;;;;;;;4.43;1.63;;;18.10;99.90;;;;;;7337718;19;111199;-73
2022/08/31 03:46:48;;;;;;;4.55;1.80;;;18.10;99.90;;;;;;7336803;19;109456;-73
2022/08/31 03:49:17;;;;;;;2.88;2.10;;;18.10;99.90;;;;;;7336081;19;111935;-72
2022/08/31 03:51:44;;;;;;;4.07;2.05;;;18.00;99.90;;;;;;7335864;19;110503;-72
2022/08/31 03:54:11;;;;;;;2.55;1.90;;;18.10;99.90;;;;;;7335140;19;109173;-73
2022/08/31 03:56:39;;;;;;;5.97;1.98;;;18.00;99.90;;;;;;7341040;19;110364;-73
2022/08/31 03:59:06;;;;;;;5.63;1.92;;;18.00;99.90;;;;;;7337191;19;109302;-73
2022/08/31 04:01:36;;;;;;;3.47;1.83;;;18.00;99.90;;;;;;7335347;19;109938;-72
2022/08/31 04:04:05;;;;;;;2.67;1.63;;;17.90;99.90;;;;;;7336320;19;111005;-73
2022/08/31 04:06:33;;;;;;;3.08;1.90;;;17.80;99.90;;;;;;7336052;19;109504;-73
2022/08/31 04:09:00;;;;;;;7.05;1.90;;;17.90;99.90;;;;;;7336201;19;110433;-72
2022/08/31 04:11:27;;;;;;;4.32;1.92;;;17.90;99.90;;;;;;7334375;19;110215;-73
2022/08/31 04:14:11;;;;;;;4.10;1.80;;;17.80;99.90;;;;;;7341881;19;111475;-72
2022/08/31 04:16:42;;;;;;;6.05;2.10;;;17.80;99.90;;;;;;7348988;19;110490;-73
2022/08/31 04:19:10;;;;;;;2.67;1.88;;;17.80;99.90;;;;;;7343702;19;110314;-73
2022/08/31 04:21:39;;;;;;;4.60;1.85;;;17.70;99.90;;;;;;7343580;19;110730;-74
2022/08/31 04:24:10;;;;;;;5.85;2.30;;;17.60;99.90;;;;;;7340303;19;114681;-73
2022/08/31 04:26:39;;;;;;;3.75;2.35;;;17.60;99.90;;;;;;7341304;19;110778;-73
2022/08/31 04:29:08;;;;;;;9.43;2.13;;;17.60;99.90;;;;;;7341791;19;110784;-73
2022/08/31 04:31:39;;;;;;;4.07;2.20;;;17.60;99.90;;;;;;7341828;19;111799;-72
2022/08/31 04:34:06;;;;;;;6.65;2.10;;;17.50;99.90;;;;;;7341923;19;109824;-72
2022/08/31 04:36:33;;;;;;;4.65;2.03;;;17.50;99.90;;;;;;7341964;19;109467;-73
2022/08/31 04:39:02;;;;;;;5.72;2.08;;;17.50;99.90;;;;;;7346076;19;111245;-72
2022/08/31 04:41:31;;;;;;;3.22;2.08;;;17.40;99.90;;;;;;7341817;19;113834;-74
2022/08/31 04:44:00;;;;;;;5.90;2.25;;;17.40;99.90;;;;;;7341964;19;111269;-73
2022/08/31 04:46:28;;;;;;;5.68;2.20;;;17.40;99.90;;;;;;7342236;19;109455;-73
2022/08/31 04:48:56;;;;;;;5.93;2.05;;;17.30;99.90;;;;;;7342884;19;109999;-73
2022/08/31 04:51:29;;;;;;;4.80;2.15;;;17.40;99.90;;;;;;7340499;19;110761;-73
2022/08/31 04:53:57;;;;;;;6.93;2.20;;;17.40;99.90;;;;;;7339717;19;109752;-74
2022/08/31 04:56:27;;;;;;;7.28;2.25;;;17.40;99.90;;;;;;7341581;19;110980;-76
2022/08/31 04:59:01;;;;;;;6.25;2.08;;;17.20;99.90;;;;;;7340788;19;110114;-77
2022/08/31 05:01:31;;;;;;;7.32;2.38;;;17.20;99.90;;;;;;7347073;19;109499;-77
2022/08/31 05:04:10;;;;;;;10.88;2.55;;;17.10;99.90;;;;;;7342160;19;111417;-77
2022/08/31 05:06:39;;;;;;;7.80;2.10;;;17.10;99.90;;;;;;7341199;19;109646;-79
2022/08/31 05:09:10;;;;;;;3.13;1.98;;;17.10;99.90;;;;;;7341402;19;110307;-77
2022/08/31 05:11:37;;;;;;;4.47;2.13;;;17.10;99.90;;;;;;7339760;19;110864;-79
2022/08/31 05:14:06;;;;;;;5.05;2.10;;;17.10;99.90;;;;;;7340632;19;109577;-78
2022/08/31 05:16:33;;;;;;;4.97;2.30;;;17.00;99.90;;;;;;7341114;19;110701;-78
2022/08/31 05:19:01;;;;;;;3.13;2.28;;;17.10;99.90;;;;;;7339566;19;111272;-78
2022/08/31 05:21:31;;;;;;;3.17;2.35;;;17.10;99.90;;;;;;7342699;19;109506;-79
2022/08/31 05:24:04;;;;;;;4.90;2.10;;;17.10;99.90;;;;;;7344085;19;110743;-80
2022/08/31 05:26:34;;;;;;;6.13;2.63;;;17.10;99.90;;;;;;7342366;19;109057;-73
2022/08/31 05:29:05;;;;;;;7.70;2.95;;;17.00;99.90;;;;;;7341879;19;110451;-73
2022/08/31 05:31:35;;;;;;;6.75;2.50;;;17.10;99.90;;;;;;7341973;19;110502;-73
2022/08/31 05:34:04;;;;;;;5.78;2.53;;;17.00;99.90;;;;;;7339666;19;110679;-75
2022/08/31 05:36:32;;;;;;;6.38;2.30;;;17.00;99.90;;;;;;7341704;19;110488;-72
2022/08/31 05:38:59;;;;;;;3.67;2.58;;;17.00;99.90;;;;;;7341385;19;110236;-75
2022/08/31 05:41:28;;;;;;;5.35;2.35;;;17.00;99.90;;;;;;7340036;19;110647;-73
2022/08/31 05:43:56;;;;;;;4.20;2.58;;;17.10;99.90;;;;;;7340855;19;109822;-75
2022/08/31 05:46:23;;;;;;;6.97;2.10;;;17.10;99.90;;;;;;7348352;19;111430;-74
2022/08/31 05:48:50;;;;;;;4.38;2.20;;;17.10;99.90;;;;;;7342027;19;110819;-72
2022/08/31 05:51:18;;;;;;;4.88;2.22;;;17.10;99.90;;;;;;7338336;19;111119;-74
2022/08/31 05:53:46;;;;;;;7.38;2.30;;;17.10;99.90;;;;;;7342572;19;109901;-73
2022/08/31 05:56:16;;;;;;;6.45;2.50;;;17.10;99.90;;;;;;7338521;19;110398;-79
2022/08/31 05:58:46;;;;;;;4.70;2.08;;;17.10;99.90;;;;;;7340908;19;112202;-77
2022/08/31 06:01:22;;;;;;;6.03;2.38;;;17.10;99.90;;;;;;7340708;19;109843;-81
2022/08/31 06:03:50;;;;;;;5.65;2.30;;;17.10;99.90;;;;;;7339341;19;109680;-77
2022/08/31 06:06:17;;;;;;;4.90;2.08;;;17.10;99.90;;;;;;7339170;19;110429;-80
2022/08/31 06:08:44;;;;;;;4.47;2.30;;;17.10;99.90;;;;;;7346994;19;109462;-75
2022/08/31 06:11:17;;;;;;;3.45;2.08;;;17.10;99.90;;;;;;7340245;19;110143;-78
2022/08/31 06:13:46;;;;;;;4.30;1.98;;;17.10;99.90;;;;;;7340755;19;109577;-77
2022/08/31 06:16:13;;;;;;;6.88;2.20;;;17.10;99.90;;;;;;7336895;19;110829;-77
2022/08/31 06:18:49;;;;;;;4.78;2.40;;;17.10;99.90;;;;;;7340334;19;111462;-77
2022/08/31 06:21:29;;;;;;;3.40;1.88;;;17.10;99.90;;;;;;7340545;19;111052;-77
2022/08/31 06:23:58;;;;;;;5.30;2.20;;;17.10;99.90;;;;;;7337787;19;110456;-78
2022/08/31 06:26:27;;;;;;;2.72;1.88;;;17.10;99.90;;;;;;7340797;19;111156;-78
2022/08/31 06:28:58;;;;;;;5.40;2.10;;;17.20;99.90;;;;;;7344150;19;109348;-77
2022/08/31 06:31:34;;;;;;;3.20;1.92;;;17.10;99.90;;;;;;7339807;19;110095;-79
2022/08/31 06:34:02;;;;;;;5.88;1.88;;;17.20;99.90;;;;;;7339968;19;110662;-78
2022/08/31 06:36:30;;;;;;;5.00;2.13;;;17.20;99.90;;;;;;7334161;19;110477;-72
2022/08/31 06:41:36;;;;;;;5.07;2.03;;;17.30;99.90;;;;;;7337248;19;109901;-73
2022/08/31 06:44:06;;;;;;;4.72;1.92;;;17.30;99.90;;;;;;7339768;19;110445;-72
2022/08/31 06:46:35;;;;;;;6.93;2.08;;;17.20;99.90;;;;;;7338289;19;112146;-73
2022/08/31 06:49:02;;;;;;;3.30;2.00;;;17.30;99.90;;;;;;7337821;19;110240;-74
2022/08/31 06:51:35;;;;;;;2.80;1.90;;;17.40;99.90;;;;;;7343672;19;110666;-73
2022/08/31 06:54:07;;;;;;;3.05;1.65;;;17.50;99.90;;;;;;7339421;19;109965;-73
2022/08/31 06:56:57;;;;;;;3.83;1.83;;;17.60;99.90;;;;;;7339017;19;111838;-73
2022/08/31 06:59:25;;;;;;;8.13;2.10;;;17.60;99.90;;;;;;7338103;19;111127;-72
2022/08/31 07:01:57;;;;;;;2.30;1.80;;;17.60;99.90;;;;;;7338714;19;109613;-72
2022/08/31 07:04:25;;;;;;;9.02;2.17;;;17.80;99.90;;;;;;7337892;19;109534;-72
2022/08/31 07:06:53;;;;;;;4.18;1.70;;;17.90;99.90;;;;;;7334848;19;110121;-85
2022/08/31 07:09:20;;;;;;;5.38;1.98;;;17.90;99.90;;;;;;7332584;19;111001;-85
2022/08/31 07:11:50;;;;;;;9.77;1.90;;;18.00;99.90;;;;;;7334960;19;113456;-74
2022/08/31 07:14:20;;;;;;;6.95;1.80;;;17.90;99.90;;;;;;7343581;19;110681;-72
2022/08/31 07:16:48;;;;;;;5.78;1.70;;;18.10;99.90;;;;;;7338313;19;111265;-72
2022/08/31 07:19:16;;;;;;;2.95;1.95;;;18.20;99.90;;;;;;7336306;19;111625;-73
2022/08/31 07:22:04;;;;;;;2.75;2.15;;;18.20;99.90;;;;;;7337489;19;111508;-73
2022/08/31 07:24:34;;;;;;;5.95;1.80;;;18.20;99.90;;;;;;7334707;19;110616;-72
2022/08/31 07:27:09;;;;;;;4.53;1.85;;;18.20;99.90;;;;;;7336706;19;111184;-73
2022/08/31 07:29:40;;;;;;;3.67;1.80;;;18.30;99.90;;;;;;7337963;19;110161;-72
2022/08/31 07:32:12;;;;;;;2.08;1.88;;;18.30;99.90;;;;;;7337682;19;110523;-72
2022/08/31 07:34:40;;;;;;;2.38;1.98;;;18.40;99.90;;;;;;7337211;19;111242;-72
2022/08/31 07:42:42;;;;;;;3.72;1.88;;;18.50;99.90;;;;;;7339293;19;109634;-72
2022/08/31 07:45:20;;;;;;;17.60;2.97;;;18.50;99.90;;;;;;7335731;19;110453;-73
2022/08/31 07:47:50;;;;;;;7.95;2.40;;;18.50;99.90;;;;;;7334679;19;111258;-73
2022/08/31 07:50:18;;;;;;;6.85;2.13;;;18.60;99.90;;;;;;7341428;19;110273;-72
2022/08/31 07:52:52;;;;;;;5.78;2.05;;;18.80;99.90;;;;;;7343934;19;109570;-73
2022/08/31 07:55:24;;;;;;;7.95;2.22;;;18.90;99.90;;;;;;7342341;19;110160;-72
2022/08/31 07:57:53;;;;;;;6.03;2.10;;;19.00;99.90;;;;;;7343754;19;110137;-71
2022/08/31 08:00:26;;;;;;;2.28;1.70;;;19.20;99.90;;;;;;7349597;19;110145;-71
2022/08/31 08:02:54;;;;;;;3.65;1.75;;;19.30;99.90;;;;;;7343815;19;109857;-70
2022/08/31 08:05:25;;;;;;;5.10;1.95;;;19.50;99.90;;;;;;7342426;19;110832;-72
2022/08/31 08:08:04;;;;;;;4.85;1.80;;;19.70;99.90;;;;;;7341324;19;110292;-72
2022/08/31 08:10:46;;;;;;;5.55;1.92;;;19.60;99.90;;;;;;7342423;19;109536;-76
2022/08/31 08:13:19;;;;;;;3.63;2.05;;;19.70;99.90;;;;;;7345422;19;110579;-76
2022/08/31 08:15:49;;;;;;;4.95;1.90;;;19.80;99.90;;;;;;7342049;19;111064;-75
2022/08/31 08:18:17;;;;;;;10.32;2.20;;;19.90;99.90;;;;;;7345331;19;109582;-75
2022/08/31 08:20:44;;;;;;;5.38;1.70;;;20.10;99.90;;;;;;7343926;19;110949;-73
2022/08/31 08:23:15;;;;;;;6.32;1.95;;;20.10;99.90;;;;;;7348562;19;110260;-77
2022/08/31 08:25:51;;;;;;;7.07;1.90;;;20.10;99.90;;;;;;7341839;19;109716;-74
2022/08/31 08:28:20;;;;;;;2.22;2.00;;;20.00;99.90;;;;;;7343853;19;111474;-76
2022/08/31 08:31:12;;;;;;;2.53;1.85;;;19.90;99.90;;;;;;7344206;19;109472;-72
2022/08/31 08:33:40;;;;;;;5.75;2.03;;;19.90;99.90;;;;;;7343087;19;110471;-72
2022/08/31 08:36:07;;;;;;;2.47;1.80;;;20.00;99.90;;;;;;7342203;19;110110;-73
2022/08/31 08:38:38;;;;;;;3.80;1.90;;;20.00;99.90;;;;;;7343440;19;109283;-73
2022/08/31 08:41:11;;;;;;;5.15;2.20;;;20.00;99.90;;;;;;7343862;19;110386;-72
2022/08/31 08:43:41;;;;;;;8.32;1.70;;;19.90;99.90;;;;;;7343681;19;110733;-73
2022/08/31 08:46:13;;;;;;;6.50;1.80;;;20.00;99.90;;;;;;7343911;19;111251;-73
2022/08/31 08:49:16;;;;;;;7.18;1.88;;;20.20;99.90;;;;;;7342675;19;114219;-72
2022/08/31 08:51:46;;;;;;;4.65;1.90;;;20.20;99.90;;;;;;7343136;19;109707;-73
2022/08/31 08:54:19;;;;;;;6.40;2.15;;;20.30;99.90;;;;;;7342325;19;110363;-72
2022/08/31 08:56:47;;;;;;;3.92;2.05;;;20.30;99.90;;;;;;7339085;19;110042;-72
2022/08/31 08:59:16;;;;;;;7.40;1.92;;;20.30;99.90;;;;;;7339844;19;109556;-73
2022/08/31 09:01:49;;;;;;;5.45;2.03;;;20.40;99.90;;;;;;7342623;19;111028;-72
2022/08/31 09:04:29;;;;;;;8.82;2.38;;;20.50;99.90;;;;;;7343619;19;111187;-72
2022/08/31 09:07:21;;;;;;;4.68;2.08;;;20.50;99.90;;;;;;7348238;19;109399;-71
2022/08/31 09:10:23;;;;;;;2.75;1.95;;;20.80;99.80;;;;;;7342919;19;111602;-73
2022/08/31 09:12:57;;;;;;;4.18;1.98;;;21.00;99.60;;;;;;7337746;19;110815;-72
2022/08/31 09:15:53;;;;;;;3.40;1.83;;;21.10;99.10;;;;;;7342188;19;110461;-72
2022/08/31 09:18:29;;;;;;;4.05;1.73;;;21.20;98.80;;;;;;7342139;19;109977;-72
2022/08/31 09:21:16;;;;;;;5.55;2.08;;;21.30;98.70;;;;;;7343423;19;110399;-72
2022/08/31 09:23:48;;;;;;;5.70;1.90;;;21.40;98.50;;;;;;7341553;19;110258;-72
2022/08/31 09:26:16;;;;;;;3.95;2.08;;;21.40;98.60;;;;;;7342061;19;111601;-72
2022/08/31 09:28:46;;;;;;;4.15;2.03;;;21.50;98.50;;;;;;7341270;19;110173;-73
2022/08/31 09:31:36;;;;;;;3.78;2.05;;;21.50;98.20;;;;;;7345413;19;109402;-72
2022/08/31 09:34:08;;;;;;;3.70;1.80;;;21.50;98.30;;;;;;7341616;19;109994;-72
2022/08/31 09:36:39;;;;;;;3.85;2.00;;;21.60;98.30;;;;;;7338276;19;109427;-72
2022/08/31 09:39:19;;;;;;;3.92;2.22;;;21.70;98.20;;;;;;7341143;19;111156;-73
2022/08/31 09:41:48;;;;;;;4.95;2.63;;;21.90;98.10;;;;;;7338912;19;110366;-73
2022/08/31 09:44:21;;;;;;;7.18;2.47;;;22.00;97.80;;;;;;7338223;19;110486;-72
2022/08/31 09:46:59;;;;;;;6.13;2.00;;;22.00;97.50;;;;;;7337374;19;110230;-72
2022/08/31 09:49:30;;;;;;;5.72;2.28;;;22.00;97.60;;;;;;7337847;19;110649;-72
2022/08/31 09:55:12;;;;;;;3.97;2.13;;;22.20;97.30;;;;;;7338797;19;111008;-73
2022/08/31 09:55:16;;;;;;;11.00;2.42;;;22.10;97.30;;;;;;7343401;19;112842;-72
2022/08/31 09:57:53;;;;;;;6.90;2.75;;;22.30;97.60;;;;;;7340417;19;110510;-72
2022/08/31 10:00:31;;;;;;;5.18;2.22;;;22.40;97.00;;;;;;7341669;19;111387;-72
2022/08/31 10:03:19;;;;;;;7.32;2.78;;;22.60;96.80;;;;;;7340621;19;109531;-72
2022/08/31 10:05:50;;;;;;;4.63;2.50;;;22.70;97.30;;;;;;7340629;19;110340;-72
2022/08/31 10:08:37;;;;;;;3.95;2.20;;;22.90;97.10;;;;;;7340678;19;111594;-72
2022/08/31 10:11:13;;;;;;;8.38;2.40;;;22.90;96.50;;;;;;7337076;19;109731;-72
2022/08/31 10:13:55;;;;;;;6.70;2.55;;;22.90;96.50;;;;;;7340769;19;109777;-72
2022/08/31 10:16:28;;;;;;;8.27;2.53;;;23.00;96.30;;;;;;7337963;19;111884;-72
2022/08/31 10:19:33;;;;;;;6.47;2.33;;;23.10;96.40;;;;;;7343379;19;109757;-72
2022/08/31 10:22:27;;;;;;;3.30;2.20;;;23.30;95.80;;;;;;7337199;19;110090;-72
2022/08/31 10:25:14;;;;;;;5.47;2.63;;;23.40;95.90;;;;;;7339742;19;110202;-72
2022/08/31 10:27:51;;;;;;;5.60;2.75;;;23.40;95.20;;;;;;7340119;19;109493;-72
2022/08/31 10:30:34;;;;;;;9.18;2.97;;;23.30;95.20;;;;;;7339924;19;111128;-72
2022/08/31 10:33:14;;;;;;;7.93;2.95;;;23.40;95.70;;;;;;7339369;19;110068;-72
2022/08/31 10:35:57;;;;;;;11.93;2.65;;;23.60;95.40;;;;;;7338602;19;110392;-72
2022/08/31 10:38:41;;;;;;;5.53;2.30;;;23.70;95.50;;;;;;7340715;19;111494;-72
2022/08/31 10:41:15;;;;;;;4.13;2.95;;;23.70;95.50;;;;;;7338716;19;109434;-72
2022/08/31 10:44:16;;;;;;;17.13;3.10;;;23.80;94.70;;;;;;7345178;19;110880;-72
2022/08/31 10:46:44;;;;;;;9.13;3.08;;;23.90;95.40;;;;;;7339371;19;110228;-72
2022/08/31 10:49:12;;;;;;;5.63;2.53;;;23.90;94.60;;;;;;7340519;19;112786;-72
2022/08/31 10:52:01;;;;;;;6.55;2.70;;;23.90;95.00;;;;;;7338481;19;111669;-73
2022/08/31 10:54:32;;;;;;;19.23;3.25;;;24.10;94.40;;;;;;7340006;19;109254;-72
2022/08/31 10:57:28;;;;;;;11.63;3.10;;;24.10;94.90;;;;;;7336959;19;111635;-72
2022/08/31 11:03:26;;;;;;;8.57;2.80;;;24.20;94.20;;;;;;7338741;19;110004;-72
2022/08/31 11:06:04;;;;;;;11.95;2.97;;;24.30;94.10;;;;;;7345936;19;110516;-72
2022/08/31 11:08:34;;;;;;;6.00;2.50;;;24.30;94.70;;;;;;7340691;19;109318;-72
2022/08/31 11:11:05;;;;;;;4.85;2.65;;;24.40;93.90;;;;;;7338467;19;110691;-72
2022/08/31 11:14:00;;;;;;;4.95;2.40;;;24.50;93.90;;;;;;7337725;19;111077;-72
2022/08/31 11:17:05;;;;;;;7.10;2.90;;;24.70;93.50;;;;;;7338610;19;110065;-72
2022/08/31 11:19:47;;;;;;;12.48;3.30;;;24.80;93.00;;;;;;7337412;19;110985;-72
2022/08/31 11:22:33;;;;;;;;;;;24.70;93.30;;;;;;7336509;19;111286;-72
2022/08/31 11:25:29;;;;;;;8.98;2.65;;;24.80;93.30;;;;;;7342810;19;109674;-73
2022/08/31 11:28:06;;;;;;;5.60;2.80;;;24.90;93.20;;;;;;7336096;19;112356;-72
2022/08/31 11:30:40;;;;;;;7.30;3.15;;;24.90;92.20;;;;;;7343369;19;110160;-73
2022/08/31 11:33:15;;;;;;;10.55;2.95;;;24.70;92.50;;;;;;7338580;19;109890;-73
2022/08/31 11:36:04;;;;;;;6.85;2.85;;;24.70;93.00;;;;;;7338837;19;111485;-73
2022/08/31 11:38:48;;;;;;;8.75;2.70;;;24.80;92.90;;;;;;7338419;19;109144;-73
2022/08/31 11:41:45;;;;;;;9.73;2.70;;;24.90;92.50;;;;;;7338755;19;110007;-73
2022/08/31 11:44:38;;;;;;;8.38;2.65;;;24.80;92.10;;;;;;7337926;19;110605;-74
2022/08/31 11:47:28;;;;;;;8.98;2.55;;;24.90;92.40;;;;;;7338523;19;109319;-73
2022/08/31 11:50:04;;;;;;;8.05;2.90;;;24.90;92.60;;;;;;7335735;19;110390;-73
2022/08/31 11:52:52;;;;;;;10.68;2.42;;;25.00;92.10;;;;;;7336160;19;110124;-73
2022/08/31 11:55:29;;;;;;;6.95;2.38;;;25.10;92.40;;;;;;7342774;19;110686;-73
2022/08/31 11:58:06;;;;;;;;;;;25.10;92.50;;;;;;7333093;19;114636;-72
2022/08/31 12:00:56;;;;;;;7.68;2.92;;;24.90;92.20;;;;;;7341015;19;109472;-73
2022/08/31 12:03:42;;;;;;;5.53;2.63;;;24.90;92.40;;;;;;7336944;19;110938;-73
2022/08/31 12:06:36;;;;;;;6.93;2.97;;;24.90;92.90;;;;;;7336759;19;113551;-73
2022/08/31 12:09:33;;;;;;;5.93;3.00;;;24.90;92.30;;;;;;7336491;19;111593;-73
2022/08/31 12:12:35;;;;;;;6.05;2.78;;;24.80;92.30;;;;;;7330848;19;110542;-73
2022/08/31 12:15:06;;;;;;;7.45;3.10;;;24.70;92.50;;;;;;7333435;19;110099;-73
2022/08/31 12:17:33;;;;;;;8.15;2.95;;;24.60;92.90;;;;;;7330364;19;109518;-73
2022/08/31 12:20:07;;;;;;;8.90;3.20;;;24.80;93.50;;;;;;7338961;19;110498;-73
2022/08/31 12:26:10;;;;;;;13.85;4.03;;;25.10;92.90;;;;;;7332663;19;111021;-73
2022/08/31 12:29:15;;;;;;;11.73;4.18;;;25.30;92.60;;;;;;7333441;19;111976;-73
2022/08/31 12:32:04;;;;;;;6.88;4.22;;;25.30;92.00;;;;;;7333348;19;109718;-73
2022/08/31 12:34:50;;;;;;;9.40;4.25;;;25.20;91.90;;;;;;7338317;19;110497;-73
2022/08/31 12:37:21;;;;;;;10.00;5.32;;;25.10;92.10;;;;;;7337436;19;110460;-73
2022/08/31 12:40:04;;;;;;;18.23;5.25;;;25.10;92.00;;;;;;7338932;19;109794;-73
2022/08/31 12:42:35;;;;;;;8.65;5.72;;;25.10;92.30;;;;;;7339447;19;110677;-72
2022/08/31 12:45:03;;;;;;;30.63;7.07;;;25.10;92.10;;;;;;7343868;19;110130;-73
2022/08/31 12:48:02;;;;;;;12.68;5.60;;;25.30;92.40;;;;;;7339066;19;110494;-73
2022/08/31 12:50:46;;;;;;;26.33;6.82;;;25.40;91.90;;;;;;7342681;19;110159;-73
2022/08/31 12:53:36;;;;;;;20.90;6.97;;;25.60;92.20;;;;;;7341155;19;111008;-74
2022/08/31 12:56:12;;;;;;;13.85;6.47;;;25.80;91.80;;;;;;7341247;19;109872;-75
2022/08/31 12:58:51;;;;;;;17.83;6.15;;;25.90;91.00;;;;;;7338940;19;110221;-73
2022/08/31 13:01:23;;;;;;;17.02;6.25;;;25.90;91.20;;;;;;7341908;19;109473;-73
2022/08/31 13:04:02;;;;;;;19.20;7.15;;;26.00;91.70;;;;;;7341802;19;110471;-73
2022/08/31 13:06:35;;;;;;;28.67;7.40;;;26.20;91.70;;;;;;7338148;19;112188;-73
2022/08/31 13:09:05;;;;;;;20.95;7.97;;;26.50;91.30;;;;;;7346900;19;110532;-72
2022/08/31 13:11:40;;;;;;;22.67;8.20;;;26.80;90.80;;;;;;7340429;19;110865;-73
2022/08/31 13:14:22;;;;;;;22.55;8.20;;;27.00;90.70;;;;;;7342539;19;109121;-73
2022/08/31 13:16:54;;;;;;;19.17;8.65;;;27.10;90.20;;;;;;7341140;19;110772;-73
2022/08/31 13:19:25;;;;;;;30.13;10.90;;;27.20;90.10;;;;;;7341812;19;112222;-73
2022/08/31 13:21:57;;;;;;;21.15;7.90;;;27.30;90.00;;;;;;7340153;19;110271;-73
2022/08/31 13:24:29;;;;;;;20.20;6.63;;;27.50;90.10;;;;;;7342778;19;109315;-73
2022/08/31 13:27:27;;;;;;;28.95;7.03;;;27.60;89.30;;;;;;7341789;19;111311;-72